createdAt,value
2022-12-08T00:01:12.158Z,84.94
2022-12-08T00:02:44.606Z,84.88
2022-12-08T00:04:16.420Z,85.05
2022-12-08T00:06:08.146Z,85.06
2022-12-08T00:07:58.330Z,85.80
2022-12-08T00:09:39.347Z,86.00
2022-12-08T00:11:15.230Z,86.30
2022-12-08T00:12:46.823Z,86.18
2022-12-08T00:14:19.141Z,85.98
2022-12-08T00:15:51.248Z,86.23
2022-12-08T00:17:23.087Z,86.13
2022-12-08T00:18:54.928Z,85.71
2022-12-08T00:20:26.609Z,86.25
2022-12-08T00:21:59.930Z,86.30
2022-12-08T00:23:31.811Z,86.85
2022-12-08T00:25:03.981Z,86.90
2022-12-08T00:26:37.090Z,87.06
2022-12-08T00:28:08.947Z,86.54
2022-12-08T00:29:40.702Z,86.45
2022-12-08T00:31:12.988Z,86.24
2022-12-08T00:32:44.592Z,86.99
2022-12-08T00:34:16.763Z,87.82
2022-12-08T00:35:48.391Z,87.67
2022-12-08T00:37:20.407Z,88.06
2022-12-08T00:38:52.179Z,87.91
2022-12-08T00:40:23.821Z,88.08
2022-12-08T00:42:13.901Z,88.14
2022-12-08T00:43:45.588Z,87.98
2022-12-08T00:45:17.230Z,87.62
2022-12-08T00:46:49.654Z,87.92
2022-12-08T00:48:21.336Z,88.07
2022-12-08T00:49:52.933Z,88.36
2022-12-08T00:51:24.834Z,88.82
2022-12-08T00:52:56.378Z,88.40
2022-12-08T00:54:28.068Z,88.72
2022-12-08T00:55:59.666Z,89.03
2022-12-08T00:57:32.036Z,89.07
2022-12-08T00:59:05.056Z,88.74
2022-12-08T01:00:36.673Z,88.90
2022-12-08T01:02:08.233Z,89.00
2022-12-08T01:03:42.100Z,88.84
2022-12-08T01:05:13.743Z,88.87
2022-12-08T01:06:45.793Z,88.69
2022-12-08T01:08:18.408Z,89.23
2022-12-08T01:09:49.999Z,89.55
2022-12-08T01:11:21.642Z,89.02
2022-12-08T01:12:53.280Z,89.71
2022-12-08T01:14:25.026Z,89.58
2022-12-08T01:15:56.691Z,89.72
2022-12-08T01:17:28.279Z,89.58
2022-12-08T01:19:00.433Z,89.56
2022-12-08T01:20:32.053Z,89.54
2022-12-08T01:22:03.701Z,89.68
2022-12-08T01:23:35.363Z,89.59
2022-12-08T01:25:07.291Z,89.54
2022-12-08T01:26:39.107Z,89.92
2022-12-08T01:28:10.799Z,89.09
2022-12-08T01:29:42.399Z,89.48
2022-12-08T01:31:17.223Z,89.53
2022-12-08T01:32:48.918Z,89.68
2022-12-08T01:34:20.528Z,89.30
2022-12-08T01:35:52.691Z,89.39
2022-12-08T01:37:24.272Z,89.18
2022-12-08T01:38:58.792Z,89.69
2022-12-08T01:40:30.387Z,89.68
2022-12-08T01:42:01.922Z,89.87
2022-12-08T01:44:08.553Z,89.48
2022-12-08T01:45:40.267Z,89.30
2022-12-08T01:47:12.047Z,89.90
2022-12-08T01:48:43.675Z,89.81
2022-12-08T01:50:19.106Z,89.96
2022-12-08T01:51:50.735Z,90.35
2022-12-08T01:53:32.845Z,90.02
2022-12-08T01:55:10.541Z,89.96
2022-12-08T01:56:51.681Z,90.21
2022-12-08T01:58:28.950Z,90.51
2022-12-08T02:00:09.027Z,90.05
2022-12-08T02:01:41.071Z,90.56
2022-12-08T02:03:22.471Z,90.33
2022-12-08T02:04:54.077Z,89.85
2022-12-08T02:06:28.636Z,89.92
2022-12-08T02:08:04.434Z,89.77
2022-12-08T02:09:38.451Z,90.23
2022-12-08T02:11:12.326Z,90.09
2022-12-08T02:12:44.151Z,90.94
2022-12-08T02:14:15.823Z,90.64
2022-12-08T02:16:24.274Z,90.39
2022-12-08T02:18:08.341Z,90.81
2022-12-08T02:20:17.739Z,90.63
2022-12-08T02:21:58.742Z,91.07
2022-12-08T02:23:37.188Z,90.88
2022-12-08T02:25:37.252Z,90.70
2022-12-08T02:27:33.978Z,90.33
2022-12-08T02:29:34.916Z,90.95
2022-12-08T02:31:34.008Z,91.05
2022-12-08T02:33:30.432Z,91.22
2022-12-08T02:35:11.077Z,91.02
2022-12-08T02:36:53.897Z,91.74
2022-12-08T02:38:53.427Z,91.21
2022-12-08T02:40:35.712Z,91.26
2022-12-08T02:42:22.154Z,91.56
2022-12-08T02:44:03.009Z,91.73
2022-12-08T02:46:01.326Z,91.59
2022-12-08T02:47:34.547Z,91.86
2022-12-08T02:49:07.189Z,91.64
2022-12-08T02:50:38.757Z,91.58
2022-12-08T02:52:10.306Z,92.00
2022-12-08T02:53:42.131Z,91.43
2022-12-08T02:55:27.569Z,91.18
2022-12-08T02:57:05.046Z,91.47
2022-12-08T02:59:06.031Z,91.52
2022-12-08T03:01:06.383Z,90.70
2022-12-08T03:02:52.800Z,91.22
2022-12-08T03:04:59.104Z,91.39
2022-12-08T03:06:48.812Z,91.15
2022-12-08T03:08:43.254Z,91.08
2022-12-08T03:10:21.782Z,91.08
2022-12-08T03:12:14.712Z,91.06
2022-12-08T03:13:53.808Z,90.88
2022-12-08T03:15:25.708Z,90.83
2022-12-08T03:16:59.551Z,91.18
2022-12-08T03:18:34.251Z,91.07
2022-12-08T03:20:11.582Z,90.63
2022-12-08T03:21:46.933Z,91.09
2022-12-08T03:23:20.056Z,90.99
2022-12-08T03:24:51.849Z,91.35
2022-12-08T03:26:48.591Z,91.35
2022-12-08T03:28:20.558Z,91.13
2022-12-08T03:29:54.540Z,91.11
2022-12-08T03:31:31.611Z,90.71
2022-12-08T03:33:18.726Z,91.22
2022-12-08T03:34:52.332Z,91.46
2022-12-08T03:36:25.351Z,91.21
2022-12-08T03:38:10.663Z,91.64
2022-12-08T03:39:42.591Z,91.30
2022-12-08T03:41:19.986Z,91.08
2022-12-08T03:42:51.567Z,91.32
2022-12-08T03:44:23.217Z,91.14
2022-12-08T03:45:54.781Z,91.77
2022-12-08T03:47:26.402Z,90.92
2022-12-08T03:48:57.994Z,90.90
2022-12-08T03:50:29.619Z,91.28
2022-12-08T03:52:01.209Z,91.12
2022-12-08T03:53:32.817Z,91.08
2022-12-08T03:55:04.760Z,91.63
2022-12-08T03:56:38.532Z,92.07
2022-12-08T03:58:10.129Z,91.26
2022-12-08T03:59:41.769Z,90.75
2022-12-08T04:01:13.518Z,90.62
2022-12-08T04:02:45.340Z,91.23
2022-12-08T04:04:17.104Z,91.57
2022-12-08T04:05:48.744Z,91.82
2022-12-08T04:07:20.337Z,91.29
2022-12-08T04:08:52.386Z,91.60
2022-12-08T04:10:24.157Z,91.85
2022-12-08T04:11:55.738Z,91.54
2022-12-08T04:13:27.687Z,91.54
2022-12-08T04:14:59.262Z,92.36
2022-12-08T04:16:30.875Z,92.19
2022-12-08T04:18:02.522Z,91.79
2022-12-08T04:19:34.244Z,92.26
2022-12-08T04:21:05.842Z,92.08
2022-12-08T04:22:37.408Z,92.54
2022-12-08T04:24:09.446Z,92.09
2022-12-08T04:25:41.098Z,91.92
2022-12-08T04:27:12.703Z,91.35
2022-12-08T04:28:44.490Z,92.21
2022-12-08T04:30:16.174Z,92.11
2022-12-08T04:31:47.740Z,91.85
2022-12-08T04:33:19.338Z,92.02
2022-12-08T04:34:50.910Z,92.21
2022-12-08T04:36:22.524Z,92.48
2022-12-08T04:37:54.078Z,91.88
2022-12-08T04:39:25.685Z,91.76
2022-12-08T04:40:57.364Z,91.79
2022-12-08T04:42:28.975Z,91.55
2022-12-08T04:44:00.583Z,91.55
2022-12-08T04:45:33.042Z,92.05
2022-12-08T04:47:04.795Z,92.11
2022-12-08T04:48:40.102Z,92.51
2022-12-08T04:50:11.919Z,92.22
2022-12-08T04:51:43.483Z,92.51
2022-12-08T04:53:15.257Z,91.76
2022-12-08T04:54:47.048Z,92.15
2022-12-08T04:56:19.239Z,92.32
2022-12-08T04:57:51.157Z,91.91
2022-12-08T04:59:22.717Z,92.12
2022-12-08T05:00:54.352Z,92.44
2022-12-08T05:02:26.066Z,91.94
2022-12-08T05:03:57.844Z,92.30
2022-12-08T05:05:29.385Z,92.07
2022-12-08T05:07:01.093Z,91.99
2022-12-08T05:08:33.286Z,92.85
2022-12-08T05:10:05.960Z,91.94
2022-12-08T05:11:48.376Z,92.02
2022-12-08T05:13:20.548Z,92.25
2022-12-08T05:14:52.170Z,92.06
2022-12-08T05:16:23.887Z,92.71
2022-12-08T05:17:55.587Z,92.84
2022-12-08T05:19:27.260Z,92.29
2022-12-08T05:20:59.064Z,92.29
2022-12-08T05:22:30.868Z,91.98
2022-12-08T05:24:02.560Z,92.66
2022-12-08T05:25:34.153Z,91.98
2022-12-08T05:27:06.118Z,92.24
2022-12-08T05:28:42.781Z,92.10
2022-12-08T05:30:15.199Z,91.60
2022-12-08T05:31:46.835Z,91.65
2022-12-08T05:33:18.522Z,91.04
2022-12-08T05:34:50.194Z,91.55
2022-12-08T05:36:21.912Z,91.83
2022-12-08T05:37:53.944Z,92.29
2022-12-08T05:39:25.807Z,92.49
2022-12-08T05:40:57.436Z,91.84
2022-12-08T05:42:29.049Z,92.66
2022-12-08T05:44:00.667Z,92.69
2022-12-08T05:45:32.401Z,92.48
2022-12-08T05:47:04.151Z,92.91
2022-12-08T05:48:35.968Z,92.29
2022-12-08T05:50:08.046Z,92.04
2022-12-08T05:51:39.671Z,91.41
2022-12-08T05:53:11.262Z,91.94
2022-12-08T05:54:42.834Z,91.88
2022-12-08T05:56:15.402Z,92.88
2022-12-08T05:57:47.073Z,91.96
2022-12-08T05:59:18.638Z,91.09
2022-12-08T06:00:51.314Z,91.24
2022-12-08T06:02:23.146Z,91.90
2022-12-08T06:03:56.206Z,92.02
2022-12-08T06:05:28.460Z,92.82
2022-12-08T06:07:00.032Z,92.03
2022-12-08T06:08:31.840Z,92.21
2022-12-08T06:10:04.665Z,91.92
2022-12-08T06:11:36.540Z,91.36
2022-12-08T06:13:08.439Z,91.56
2022-12-08T06:14:40.218Z,91.75
2022-12-08T06:16:11.933Z,91.61
2022-12-08T06:17:43.839Z,92.24
2022-12-08T06:19:16.007Z,92.39
2022-12-08T06:20:47.845Z,91.79
2022-12-08T06:22:19.747Z,91.76
2022-12-08T06:23:53.448Z,92.09
2022-12-08T06:25:25.440Z,91.73
2022-12-08T06:26:57.109Z,92.01
2022-12-08T06:28:30.306Z,91.48
2022-12-08T06:30:02.244Z,91.63
2022-12-08T06:31:34.242Z,91.95
2022-12-08T06:33:05.840Z,91.94
2022-12-08T06:34:37.845Z,91.51
2022-12-08T06:36:12.973Z,91.80
2022-12-08T06:37:44.584Z,92.34
2022-12-08T06:39:16.203Z,92.28
2022-12-08T06:40:54.377Z,92.67
2022-12-08T06:42:44.196Z,92.82
2022-12-08T06:44:15.792Z,92.47
2022-12-08T06:45:47.662Z,92.41
2022-12-08T06:47:26.051Z,92.34
2022-12-08T06:48:58.587Z,92.49
2022-12-08T06:50:30.177Z,92.18
2022-12-08T06:52:01.879Z,92.97
2022-12-08T06:53:33.476Z,92.03
2022-12-08T06:55:05.603Z,91.64
2022-12-08T06:56:37.230Z,91.12
2022-12-08T06:58:08.897Z,91.66
2022-12-08T06:59:40.474Z,92.35
2022-12-08T07:01:13.778Z,92.04
2022-12-08T07:02:45.455Z,92.07
2022-12-08T07:04:17.205Z,91.46
2022-12-08T07:05:48.905Z,92.29
2022-12-08T07:07:20.493Z,91.86
2022-12-08T07:08:52.231Z,91.80
2022-12-08T07:10:23.873Z,91.67
2022-12-08T07:11:55.443Z,91.51
2022-12-08T07:13:27.088Z,91.51
2022-12-08T07:14:59.024Z,91.43
2022-12-08T07:16:30.868Z,91.67
2022-12-08T07:18:02.564Z,91.94
2022-12-08T07:19:34.250Z,91.85
2022-12-08T07:21:08.600Z,92.13
2022-12-08T07:22:40.249Z,91.37
2022-12-08T07:24:12.365Z,91.23
2022-12-08T07:25:44.127Z,91.67
2022-12-08T07:27:15.917Z,90.58
2022-12-08T07:28:47.734Z,90.48
2022-12-08T07:30:20.552Z,91.00
2022-12-08T07:31:53.747Z,91.17
2022-12-08T07:33:25.645Z,90.84
2022-12-08T07:34:57.222Z,91.39
2022-12-08T07:36:28.940Z,90.80
2022-12-08T07:38:00.737Z,90.55
2022-12-08T07:39:32.810Z,90.05
2022-12-08T07:41:11.939Z,90.40
2022-12-08T07:42:44.901Z,89.89
2022-12-08T07:44:17.594Z,89.53
2022-12-08T07:45:50.979Z,88.94
2022-12-08T07:47:23.513Z,90.46
2022-12-08T07:48:56.010Z,90.39
2022-12-08T07:50:28.660Z,89.60
2022-12-08T07:52:01.167Z,90.09
2022-12-08T07:53:34.585Z,88.89
2022-12-08T07:55:08.209Z,88.73
2022-12-08T07:56:41.628Z,89.00
2022-12-08T07:58:14.187Z,89.28
2022-12-08T07:59:48.078Z,89.87
2022-12-08T08:01:31.919Z,89.92
2022-12-08T08:03:05.174Z,89.98
2022-12-08T08:04:38.325Z,89.72
2022-12-08T08:06:10.967Z,88.91
2022-12-08T08:07:44.199Z,88.62
2022-12-08T08:09:16.576Z,89.22
2022-12-08T08:10:48.257Z,89.12
2022-12-08T08:12:31.245Z,88.38
2022-12-08T08:14:05.218Z,89.66
2022-12-08T08:15:38.995Z,89.21
2022-12-08T08:17:11.372Z,89.14
2022-12-08T08:18:44.898Z,88.71
2022-12-08T08:20:19.015Z,88.28
2022-12-08T08:21:52.079Z,89.36
2022-12-08T08:23:24.812Z,89.01
2022-12-08T08:24:58.013Z,89.21
2022-12-08T08:26:31.267Z,89.03
2022-12-08T08:28:03.362Z,88.46
2022-12-08T08:29:35.733Z,89.23
2022-12-08T08:31:08.171Z,89.08
2022-12-08T08:32:40.830Z,88.62
2022-12-08T08:34:13.140Z,89.28
2022-12-08T08:35:46.835Z,88.32
2022-12-08T08:37:20.566Z,88.67
2022-12-08T08:38:52.742Z,88.57
2022-12-08T08:40:25.654Z,89.21
2022-12-08T08:41:58.762Z,89.04
2022-12-08T08:43:37.554Z,88.45
2022-12-08T08:45:11.718Z,89.08
2022-12-08T08:46:44.718Z,89.39
2022-12-08T08:48:17.136Z,89.39
2022-12-08T08:49:49.208Z,89.40
2022-12-08T08:51:21.877Z,89.66
2022-12-08T08:52:54.155Z,88.54
2022-12-08T08:54:26.305Z,88.41
2022-12-08T08:55:58.691Z,88.50
2022-12-08T08:57:31.119Z,88.93
2022-12-08T08:59:04.028Z,88.86
2022-12-08T09:00:37.741Z,88.96
2022-12-08T09:02:18.132Z,89.30
2022-12-08T09:03:50.848Z,89.05
2022-12-08T09:05:23.606Z,88.50
2022-12-08T09:06:57.026Z,88.74
2022-12-08T09:08:29.354Z,88.65
2022-12-08T09:10:02.008Z,89.14
2022-12-08T09:11:34.804Z,88.22
2022-12-08T09:13:07.109Z,88.32
2022-12-08T09:14:39.894Z,88.16
2022-12-08T09:16:12.812Z,88.21
2022-12-08T09:17:45.420Z,88.02
2022-12-08T09:19:17.734Z,88.79
2022-12-08T09:20:49.994Z,88.47
2022-12-08T09:22:22.547Z,88.04
2022-12-08T09:23:58.099Z,87.69
2022-12-08T09:25:30.944Z,87.48
2022-12-08T09:27:04.253Z,87.86
2022-12-08T09:28:37.286Z,87.87
2022-12-08T09:30:11.307Z,87.52
2022-12-08T09:31:45.130Z,87.83
2022-12-08T09:33:19.008Z,87.33
2022-12-08T09:34:52.570Z,87.42
2022-12-08T09:36:25.923Z,87.89
2022-12-08T09:37:57.957Z,87.34
2022-12-08T09:39:31.523Z,87.21
2022-12-08T09:41:14.323Z,87.23
2022-12-08T09:43:05.589Z,87.31
2022-12-08T09:44:45.005Z,87.24
2022-12-08T09:46:20.826Z,87.03
2022-12-08T09:48:06.502Z,86.97
2022-12-08T09:49:47.266Z,87.21
2022-12-08T09:51:20.287Z,87.31
2022-12-08T09:53:15.560Z,87.43
2022-12-08T09:54:47.465Z,87.51
2022-12-08T09:56:22.848Z,87.47
2022-12-08T09:58:03.534Z,86.97
2022-12-08T09:59:36.523Z,86.59
2022-12-08T10:01:12.632Z,86.18
2022-12-08T10:02:48.212Z,86.64
2022-12-08T10:04:26.154Z,86.38
2022-12-08T10:06:28.208Z,86.15
2022-12-08T10:08:16.929Z,86.65
2022-12-08T10:10:07.053Z,86.56
2022-12-08T10:12:04.365Z,86.42
2022-12-08T10:13:50.682Z,86.74
2022-12-08T10:15:28.815Z,87.00
2022-12-08T10:17:06.607Z,87.07
2022-12-08T10:18:38.539Z,86.96
2022-12-08T10:20:17.238Z,87.12
2022-12-08T10:21:49.862Z,86.24
2022-12-08T10:23:30.597Z,85.67
2022-12-08T10:25:06.325Z,85.50
2022-12-08T10:26:38.276Z,85.41
2022-12-08T10:28:11.686Z,85.17
2022-12-08T10:29:44.360Z,84.87
2022-12-08T10:31:23.379Z,84.99
2022-12-08T10:32:56.132Z,85.22
2022-12-08T10:34:29.063Z,85.28
2022-12-08T10:36:06.253Z,85.47
2022-12-08T10:37:39.883Z,85.58
2022-12-08T10:39:31.236Z,85.35
2022-12-08T10:41:05.489Z,85.65
2022-12-08T10:42:49.251Z,86.07
2022-12-08T10:44:21.950Z,85.58
2022-12-08T10:45:55.511Z,85.91
2022-12-08T10:47:30.181Z,85.87
2022-12-08T10:49:06.992Z,85.37
2022-12-08T10:50:44.141Z,85.00
2022-12-08T10:52:26.269Z,83.00
2022-12-08T10:54:00.336Z,82.79
2022-12-08T10:55:46.444Z,81.78
2022-12-08T10:57:22.627Z,81.69
2022-12-08T10:59:21.228Z,82.41
2022-12-08T11:00:59.974Z,80.80
2022-12-08T11:02:32.901Z,79.18
2022-12-08T11:04:12.881Z,70.38
2022-12-08T11:05:45.074Z,57.72
2022-12-08T11:07:23.123Z,46.48
2022-12-08T11:09:04.853Z,41.94
2022-12-08T11:10:44.201Z,38.49
2022-12-08T11:12:21.338Z,35.90
2022-12-08T11:13:54.963Z,33.26
2022-12-08T11:15:35.680Z,34.08
2022-12-08T11:17:25.386Z,31.96
2022-12-08T11:18:59.224Z,30.62
2022-12-08T11:20:41.309Z,34.86
2022-12-08T11:22:34.119Z,42.02
2022-12-08T11:24:21.682Z,43.94
2022-12-08T11:25:56.934Z,46.08
2022-12-08T11:27:33.714Z,43.92
2022-12-08T11:29:05.655Z,43.11
2022-12-08T11:30:41.623Z,44.97
2022-12-08T11:32:13.788Z,46.97
2022-12-08T11:33:48.175Z,38.13
2022-12-08T11:35:29.199Z,31.96
2022-12-08T11:37:09.537Z,35.63
2022-12-08T11:38:46.901Z,43.78
2022-12-08T11:40:37.876Z,51.45
2022-12-08T11:42:14.941Z,53.92
2022-12-08T11:44:06.004Z,55.01
2022-12-08T11:45:40.903Z,58.44
2022-12-08T11:47:24.970Z,60.21
2022-12-08T11:49:06.405Z,61.26
2022-12-08T11:50:53.418Z,61.37
2022-12-08T11:52:33.808Z,61.86
2022-12-08T11:54:13.297Z,62.41
2022-12-08T11:55:55.248Z,63.60
2022-12-08T11:57:29.936Z,63.21
2022-12-08T11:59:08.591Z,62.73
2022-12-08T12:00:40.598Z,62.82
2022-12-08T12:02:17.508Z,63.18
2022-12-08T12:04:13.854Z,62.92
2022-12-08T12:06:37.592Z,63.39
2022-12-08T12:08:14.995Z,64.54
2022-12-08T12:10:21.297Z,63.97
2022-12-08T12:12:19.179Z,64.56
2022-12-08T12:13:59.107Z,64.86
2022-12-08T12:15:39.870Z,65.85
2022-12-08T12:17:21.051Z,65.15
2022-12-08T12:18:58.048Z,66.15
2022-12-08T12:20:50.187Z,65.67
2022-12-08T12:22:23.228Z,65.09
2022-12-08T12:24:04.333Z,65.80
2022-12-08T12:25:36.981Z,65.04
2022-12-08T12:27:14.970Z,65.02
2022-12-08T12:28:57.396Z,65.00
2022-12-08T12:30:56.978Z,64.41
2022-12-08T12:32:53.347Z,64.69
2022-12-08T12:34:29.360Z,64.07
2022-12-08T12:36:08.379Z,64.75
2022-12-08T12:37:44.658Z,64.57
2022-12-08T12:39:22.310Z,65.42
2022-12-08T12:41:04.867Z,65.73
2022-12-08T12:42:44.629Z,65.70
2022-12-08T12:44:22.770Z,65.12
2022-12-08T12:46:23.182Z,64.82
2022-12-08T12:48:00.585Z,65.24
2022-12-08T12:49:41.318Z,65.16
2022-12-08T12:51:54.007Z,64.77
2022-12-08T12:53:25.610Z,64.87
2022-12-08T12:54:57.203Z,64.50
2022-12-08T12:56:58.092Z,64.25
2022-12-08T12:58:30.534Z,65.14
2022-12-08T13:00:02.391Z,64.80
2022-12-08T13:01:46.462Z,64.64
2022-12-08T13:03:18.607Z,64.46
2022-12-08T13:05:17.024Z,64.29
2022-12-08T13:06:50.535Z,64.56
2022-12-08T13:08:27.390Z,65.27
2022-12-08T13:10:11.121Z,65.28
2022-12-08T13:11:53.871Z,65.80
2022-12-08T13:13:25.964Z,66.01
2022-12-08T13:15:05.619Z,65.29
2022-12-08T13:16:39.675Z,65.53
2022-12-08T13:18:49.522Z,65.99
2022-12-08T13:20:24.948Z,65.03
2022-12-08T13:21:56.994Z,65.85
2022-12-08T13:23:38.102Z,64.98
2022-12-08T13:25:44.112Z,65.07
2022-12-08T13:27:30.520Z,64.86
2022-12-08T13:29:03.727Z,65.49
2022-12-08T13:30:50.791Z,66.00
2022-12-08T13:32:35.430Z,66.64
2022-12-08T13:34:43.175Z,66.87
2022-12-08T13:36:33.922Z,66.71
2022-12-08T13:38:08.496Z,66.35
2022-12-08T13:39:42.170Z,66.70
2022-12-08T13:41:22.923Z,67.33
2022-12-08T13:43:19.794Z,67.54
2022-12-08T13:45:27.903Z,67.89
2022-12-08T13:47:32.699Z,67.66
2022-12-08T13:56:43.313Z,68.33
2022-12-08T13:57:26.732Z,68.08
2022-12-08T13:59:10.316Z,68.22
2022-12-08T14:00:43.647Z,67.03
2022-12-08T14:02:29.302Z,67.73
2022-12-08T14:04:34.039Z,67.24
2022-12-08T14:06:13.425Z,67.44
2022-12-08T14:07:50.345Z,67.88
2022-12-08T14:09:27.540Z,67.12
2022-12-08T14:11:07.067Z,67.14
2022-12-08T14:12:49.826Z,67.41
2022-12-08T14:14:53.676Z,68.09
2022-12-08T14:16:34.521Z,68.54
2022-12-08T14:18:22.160Z,68.04
2022-12-08T14:20:13.176Z,68.55
2022-12-08T14:21:56.811Z,67.29
2022-12-08T14:23:30.673Z,67.44
2022-12-08T14:25:06.222Z,67.69
2022-12-08T14:26:38.985Z,67.82
2022-12-08T14:28:12.902Z,68.45
2022-12-08T14:29:57.445Z,68.67
2022-12-08T14:31:31.177Z,68.25
2022-12-08T14:33:05.901Z,68.36
2022-12-08T14:34:41.099Z,68.72
2022-12-08T14:36:16.813Z,69.03
2022-12-08T14:37:51.720Z,68.65
2022-12-08T14:39:25.106Z,68.72
2022-12-08T14:41:08.200Z,69.17
2022-12-08T14:42:50.826Z,69.71
2022-12-08T14:44:24.795Z,69.42
2022-12-08T14:46:03.443Z,69.93
2022-12-08T14:47:36.291Z,69.47
2022-12-08T14:49:33.323Z,68.76
2022-12-08T14:51:25.096Z,67.99
2022-12-08T14:52:58.259Z,67.83
2022-12-08T14:54:31.641Z,68.13
2022-12-08T14:56:09.976Z,67.94
2022-12-08T14:57:43.755Z,67.92
2022-12-08T14:59:19.672Z,68.79
2022-12-08T15:00:59.022Z,68.57
2022-12-08T15:02:33.347Z,68.83
2022-12-08T15:04:29.761Z,68.80
2022-12-08T15:06:07.027Z,68.70
2022-12-08T15:07:53.694Z,68.96
2022-12-08T15:09:42.358Z,68.09
2022-12-08T15:11:30.455Z,68.42
2022-12-08T15:13:11.665Z,68.35
2022-12-08T15:14:59.857Z,68.90
2022-12-08T15:16:39.988Z,69.29
2022-12-08T15:18:17.980Z,69.12
2022-12-08T15:19:57.215Z,69.16
2022-12-08T15:21:33.319Z,69.52
2022-12-08T15:23:08.391Z,70.05
2022-12-08T15:24:41.751Z,70.33
2022-12-08T15:26:24.227Z,69.71
2022-12-08T15:27:58.774Z,70.28
2022-12-08T15:29:31.583Z,70.80
2022-12-08T15:31:04.402Z,70.56
2022-12-08T15:32:38.335Z,70.46
2022-12-08T15:34:12.253Z,70.47
2022-12-08T15:35:46.675Z,70.76
2022-12-08T15:37:27.626Z,71.25
2022-12-08T15:38:59.666Z,70.83
2022-12-08T15:40:31.385Z,70.67
2022-12-08T15:42:06.456Z,71.35
2022-12-08T15:43:38.116Z,70.71
2022-12-08T15:45:18.038Z,71.12
2022-12-08T15:46:50.766Z,71.22
2022-12-08T15:48:26.871Z,71.23
2022-12-08T15:49:59.112Z,70.53
2022-12-08T15:51:36.516Z,70.06
2022-12-08T15:53:10.975Z,70.51
2022-12-08T15:54:42.749Z,70.81
2022-12-08T15:56:30.097Z,70.96
2022-12-08T15:58:51.745Z,70.67
2022-12-08T15:59:53.673Z,70.55
2022-12-08T16:01:26.304Z,70.22
2022-12-08T16:03:27.648Z,70.62
2022-12-08T16:07:19.536Z,71.09
2022-12-08T16:08:49.665Z,71.40
2022-12-08T16:10:45.427Z,71.46
2022-12-08T16:13:40.415Z,71.02
2022-12-08T16:16:30.670Z,71.81
2022-12-08T16:18:03.810Z,72.14
2022-12-08T16:19:36.565Z,71.58
2022-12-08T16:21:31.670Z,71.83
2022-12-08T16:23:26.433Z,72.14
2022-12-08T16:24:55.293Z,72.38
2022-12-08T16:27:28.582Z,72.46
2022-12-08T16:30:15.592Z,72.30
2022-12-08T16:31:47.774Z,72.29
2022-12-08T16:33:20.015Z,71.34
2022-12-08T16:34:53.001Z,71.07
2022-12-08T16:36:25.133Z,72.13
2022-12-08T16:37:57.810Z,71.69
2022-12-08T16:39:29.732Z,72.43
2022-12-08T16:41:21.196Z,72.02
2022-12-08T16:42:53.650Z,72.65
2022-12-08T16:44:25.919Z,73.11
2022-12-08T16:45:57.969Z,72.44
2022-12-08T16:47:30.998Z,72.42
2022-12-08T16:49:03.642Z,72.32
2022-12-08T16:50:35.632Z,72.30
2022-12-08T16:52:07.649Z,72.75
2022-12-08T16:53:40.215Z,72.95
2022-12-08T16:55:14.813Z,73.22
2022-12-08T16:56:46.510Z,72.87
2022-12-08T16:58:21.461Z,72.91
2022-12-08T16:59:54.218Z,73.77
2022-12-08T17:01:26.179Z,74.52
2022-12-08T17:02:58.983Z,72.95
2022-12-08T17:04:32.376Z,73.16
2022-12-08T17:06:17.794Z,68.97
2022-12-08T17:07:52.157Z,69.65
2022-12-08T17:09:25.463Z,70.87
2022-12-08T17:11:07.675Z,71.71
2022-12-08T17:12:39.855Z,71.67
2022-12-08T17:14:13.138Z,72.33
2022-12-08T17:15:44.912Z,71.84
2022-12-08T17:17:16.603Z,71.45
2022-12-08T17:18:48.804Z,71.32
2022-12-08T17:20:23.821Z,71.98
2022-12-08T17:21:55.976Z,72.88
2022-12-08T17:23:27.757Z,73.09
2022-12-08T17:24:59.462Z,73.22
2022-12-08T17:26:31.259Z,73.62
2022-12-08T17:28:03.466Z,73.43
2022-12-08T17:29:35.278Z,73.73
2022-12-08T17:31:12.708Z,74.23
2022-12-08T17:32:45.254Z,73.81
2022-12-08T17:34:19.373Z,74.47
2022-12-08T17:35:54.849Z,73.86
2022-12-08T17:37:27.533Z,73.50
2022-12-08T17:39:01.167Z,74.42
2022-12-08T17:40:33.103Z,75.36
2022-12-08T17:42:07.096Z,75.24
2022-12-08T17:43:39.039Z,75.81
2022-12-08T17:45:11.237Z,75.66
2022-12-08T17:46:49.088Z,74.82
2022-12-08T17:48:25.254Z,75.62
2022-12-08T17:49:57.877Z,75.54
2022-12-08T17:51:29.497Z,76.64
2022-12-08T17:53:01.177Z,76.29
2022-12-08T17:54:32.935Z,77.06
2022-12-08T17:56:04.906Z,77.11
2022-12-08T17:57:37.273Z,77.01
2022-12-08T17:59:09.661Z,76.96
2022-12-08T18:00:41.607Z,77.38
2022-12-08T18:02:14.718Z,77.04
2022-12-08T18:03:49.162Z,77.37
2022-12-08T18:05:24.613Z,77.70
2022-12-08T18:07:00.802Z,77.93
2022-12-08T18:08:33.876Z,77.80
2022-12-08T18:10:07.572Z,78.58
2022-12-08T18:11:41.456Z,78.74
2022-12-08T18:13:13.890Z,78.78
2022-12-08T18:14:47.867Z,79.81
2022-12-08T18:16:23.847Z,79.89
2022-12-08T18:17:55.770Z,80.03
2022-12-08T18:19:27.987Z,80.53
2022-12-08T18:21:01.096Z,80.71
2022-12-08T18:22:32.895Z,80.56
2022-12-08T18:24:05.633Z,80.89
2022-12-08T18:25:38.258Z,81.25
2022-12-08T18:27:10.191Z,80.03
2022-12-08T18:28:42.622Z,80.41
2022-12-08T18:30:18.169Z,81.01
2022-12-08T18:31:52.111Z,81.22
2022-12-08T18:33:23.853Z,81.41
2022-12-08T18:34:56.448Z,81.62
2022-12-08T18:36:28.922Z,81.27
2022-12-08T18:38:02.061Z,81.07
2022-12-08T18:39:35.951Z,81.56
2022-12-08T18:41:21.240Z,81.70
2022-12-08T18:42:54.766Z,81.93
2022-12-08T18:44:28.470Z,83.07
2022-12-08T18:46:08.582Z,82.73
2022-12-08T18:47:41.852Z,82.83
2022-12-08T18:49:18.110Z,82.71
2022-12-08T18:50:50.856Z,82.85
2022-12-08T18:52:31.018Z,83.35
2022-12-08T18:54:05.273Z,83.17
2022-12-08T18:55:38.190Z,83.28
2022-12-08T18:57:10.887Z,83.06
2022-12-08T18:58:43.608Z,83.48
2022-12-08T19:00:18.778Z,83.84
2022-12-08T19:01:52.352Z,83.60
2022-12-08T19:03:26.003Z,82.97
2022-12-08T19:04:58.853Z,83.32
2022-12-08T19:06:31.507Z,82.55
2022-12-08T19:08:04.057Z,82.75
2022-12-08T19:09:38.721Z,82.78
2022-12-08T19:11:23.381Z,83.27
2022-12-08T19:12:57.213Z,83.71
2022-12-08T19:14:30.929Z,83.81
2022-12-08T19:16:04.962Z,83.57
2022-12-08T19:17:37.335Z,83.15
2022-12-08T19:19:09.511Z,83.12
2022-12-08T19:20:42.965Z,83.67
2022-12-08T19:22:16.043Z,83.86
2022-12-08T19:23:48.257Z,84.07
2022-12-08T19:25:22.093Z,84.06
2022-12-08T19:26:54.550Z,83.38
2022-12-08T19:28:27.291Z,83.13
2022-12-08T19:30:00.909Z,82.44
2022-12-08T19:31:35.317Z,82.53
2022-12-08T19:33:09.674Z,82.49
2022-12-08T19:34:44.591Z,83.06
2022-12-08T19:36:20.530Z,82.94
2022-12-08T19:37:55.252Z,83.21
2022-12-08T19:39:46.243Z,84.87
2022-12-08T19:41:37.574Z,85.16
2022-12-08T19:43:38.298Z,84.65
2022-12-08T19:45:22.707Z,84.88
2022-12-08T19:46:56.672Z,84.90
2022-12-08T19:48:30.442Z,85.18
2022-12-08T19:50:22.969Z,85.19
2022-12-08T19:51:57.111Z,84.99
2022-12-08T19:53:31.282Z,84.86
2022-12-08T19:55:05.731Z,84.32
2022-12-08T19:56:39.276Z,84.48
2022-12-08T19:58:13.031Z,84.23
2022-12-08T19:59:45.837Z,83.86
2022-12-08T20:01:18.826Z,84.39
2022-12-08T20:02:53.396Z,83.50
2022-12-08T20:04:28.463Z,83.30
2022-12-08T20:06:02.986Z,82.88
2022-12-08T20:07:37.221Z,83.91
2022-12-08T20:09:12.714Z,82.67
2022-12-08T20:10:46.262Z,83.21
2022-12-08T20:12:20.168Z,82.53
2022-12-08T20:13:53.599Z,82.72
2022-12-08T20:15:26.369Z,82.58
2022-12-08T20:16:59.386Z,82.88
2022-12-08T20:18:36.633Z,82.59
2022-12-08T20:20:10.455Z,82.07
2022-12-08T20:21:43.331Z,82.92
2022-12-08T20:23:17.273Z,81.92
2022-12-08T20:24:57.256Z,82.47
2022-12-08T20:26:32.419Z,83.60
2022-12-08T20:28:05.804Z,84.33
2022-12-08T20:29:40.144Z,84.69
2022-12-08T20:31:27.364Z,84.55
2022-12-08T20:33:00.545Z,84.97
2022-12-08T20:34:34.745Z,84.67
2022-12-08T20:36:08.818Z,84.66
2022-12-08T20:37:43.040Z,84.27
2022-12-08T20:39:18.642Z,83.89
2022-12-08T20:40:51.949Z,84.00
2022-12-08T20:42:27.029Z,84.52
2022-12-08T20:44:00.643Z,85.27
2022-12-08T20:45:33.911Z,85.36
2022-12-08T20:47:07.958Z,86.07
2022-12-08T20:48:44.606Z,85.53
2022-12-08T20:50:17.794Z,85.83
2022-12-08T20:51:52.959Z,85.96
2022-12-08T20:53:26.813Z,85.19
2022-12-08T20:55:00.155Z,85.29
2022-12-08T20:56:35.067Z,85.27